createdAt,value
2023-05-22T00:01:49.415Z,101354.38
2023-05-22T00:04:21.178Z,101358.50
2023-05-22T00:06:49.939Z,101354.31
2023-05-22T00:09:17.761Z,101357.19
2023-05-22T00:11:45.693Z,101344.34
2023-05-22T00:14:13.889Z,101345.91
2023-05-22T00:16:41.887Z,101343.63
2023-05-22T00:19:16.543Z,101343.66
2023-05-22T00:21:45.144Z,101341.47
2023-05-22T00:24:12.906Z,101341.50
2023-05-22T00:26:40.619Z,101344.22
2023-05-22T00:29:09.296Z,101343.84
2023-05-22T00:31:37.003Z,101336.84
2023-05-22T00:34:04.670Z,101339.28
2023-05-22T00:36:32.365Z,101337.72
2023-05-22T00:39:00.961Z,101334.06
2023-05-22T00:41:28.939Z,101335.59
2023-05-22T00:43:56.570Z,101334.22
2023-05-22T00:46:24.485Z,101330.53
2023-05-22T00:48:53.068Z,101328.16
2023-05-22T00:51:22.702Z,101335.88
2023-05-22T00:53:51.709Z,101332.59
2023-05-22T00:56:19.723Z,101340.41
2023-05-22T00:58:48.336Z,101345.97
2023-05-22T01:01:16.699Z,101336.91
2023-05-22T01:03:46.038Z,101334.44
2023-05-22T01:06:15.897Z,101335.56
2023-05-22T01:08:45.033Z,101331.16
2023-05-22T01:11:40.471Z,101337.09
2023-05-22T01:14:26.891Z,101333.41
2023-05-22T01:17:56.180Z,101333.66
2023-05-22T01:20:31.684Z,101326.31
2023-05-22T01:23:24.198Z,101329.19
2023-05-22T01:26:22.426Z,101334.19
2023-05-22T01:29:29.229Z,101330.84
2023-05-22T01:31:59.128Z,101333.25
2023-05-22T01:34:28.351Z,101334.16
2023-05-22T01:36:57.284Z,101328.50
2023-05-22T01:39:28.493Z,101331.78
2023-05-22T01:41:56.559Z,101333.38
2023-05-22T01:44:25.124Z,101330.84
2023-05-22T01:46:52.840Z,101333.63
2023-05-22T01:49:20.664Z,101349.91
2023-05-22T01:51:57.487Z,101340.44
2023-05-22T01:54:31.623Z,101334.59
2023-05-22T01:57:37.516Z,101333.47
2023-05-22T02:00:12.035Z,101340.88
2023-05-22T02:02:53.584Z,101343.63
2023-05-22T02:05:23.478Z,101343.56
2023-05-22T02:07:52.597Z,101340.53
2023-05-22T02:10:21.742Z,101347.94
2023-05-22T02:12:49.495Z,101338.41
2023-05-22T02:15:17.946Z,101339.41
2023-05-22T02:17:46.284Z,101337.34
2023-05-22T02:20:15.660Z,101343.72
2023-05-22T02:22:48.402Z,101336.13
2023-05-22T02:25:17.686Z,101336.50
2023-05-22T02:27:47.940Z,101326.97
2023-05-22T02:30:15.885Z,101331.75
2023-05-22T02:32:45.752Z,101330.72
2023-05-22T02:35:13.464Z,101331.88
2023-05-22T02:37:41.124Z,101331.47
2023-05-22T02:40:12.370Z,101323.78
2023-05-22T02:42:40.232Z,101322.66
2023-05-22T02:45:08.961Z,101313.59
2023-05-22T02:47:37.265Z,101319.56
2023-05-22T02:50:05.993Z,101312.72
2023-05-22T02:52:36.943Z,101309.78
2023-05-22T02:55:05.499Z,101303.75
2023-05-22T02:57:33.600Z,101311.03
2023-05-22T03:00:01.594Z,101314.44
2023-05-22T03:02:32.319Z,101294.97
2023-05-22T03:05:00.265Z,101300.84
2023-05-22T03:07:29.640Z,101306.47
2023-05-22T03:09:57.937Z,101307.44
2023-05-22T03:12:25.576Z,101305.06
2023-05-22T03:14:53.280Z,101301.50
2023-05-22T03:17:21.048Z,101308.94
2023-05-22T03:19:48.972Z,101302.53
2023-05-22T03:22:18.547Z,101297.97
2023-05-22T03:24:46.493Z,101294.78
2023-05-22T03:27:18.289Z,101296.63
2023-05-22T03:29:47.926Z,101298.09
2023-05-22T03:32:16.876Z,101301.00
2023-05-22T03:34:44.586Z,101289.47
2023-05-22T03:37:12.589Z,101291.91
2023-05-22T03:39:40.420Z,101297.25
2023-05-22T03:42:18.922Z,101292.38
2023-05-22T03:44:47.121Z,101296.28
2023-05-22T03:47:14.815Z,101288.34
2023-05-22T03:49:42.541Z,101292.75
2023-05-22T03:52:10.780Z,101298.59
2023-05-22T03:54:38.494Z,101298.47
2023-05-22T03:57:06.974Z,101305.72
2023-05-22T03:59:34.759Z,101298.97
2023-05-22T04:02:02.362Z,101294.75
2023-05-22T04:04:30.673Z,101289.88
2023-05-22T04:06:59.303Z,101294.06
2023-05-22T04:09:27.717Z,101292.97
2023-05-22T04:11:58.824Z,101298.81
2023-05-22T04:14:26.702Z,101300.84
2023-05-22T04:16:54.646Z,101289.38
2023-05-22T04:19:22.540Z,101288.56
2023-05-22T04:21:50.428Z,101300.19
2023-05-22T04:24:18.526Z,101299.56
2023-05-22T04:26:46.397Z,101297.28
2023-05-22T04:29:14.628Z,101292.34
2023-05-22T04:31:43.263Z,101294.28
2023-05-22T04:34:15.544Z,101283.00
2023-05-22T04:36:45.312Z,101272.69
2023-05-22T04:39:14.748Z,101292.81
2023-05-22T04:41:42.898Z,101289.09
2023-05-22T04:44:10.568Z,101289.06
2023-05-22T04:46:38.487Z,101291.75
2023-05-22T04:49:06.553Z,101292.28
2023-05-22T04:51:34.945Z,101286.00
2023-05-22T04:54:02.792Z,101279.91
2023-05-22T04:56:36.268Z,101278.88
2023-05-22T04:59:09.121Z,101277.56
2023-05-22T05:01:38.699Z,101289.84
2023-05-22T05:04:06.595Z,101268.09
2023-05-22T05:06:34.927Z,101273.31
2023-05-22T05:09:05.058Z,101272.22
2023-05-22T05:11:33.018Z,101265.72
2023-05-22T05:14:01.040Z,101269.97
2023-05-22T05:16:29.853Z,101269.91
2023-05-22T05:18:57.768Z,101275.63
2023-05-22T05:21:27.848Z,101277.69
2023-05-22T05:23:57.288Z,101270.94
2023-05-22T05:26:25.123Z,101263.72
2023-05-22T05:28:54.029Z,101269.88
2023-05-22T05:31:22.642Z,101272.22
2023-05-22T05:34:22.921Z,101272.41
2023-05-22T05:36:59.431Z,101267.44
2023-05-22T05:39:27.201Z,101280.22
2023-05-22T05:41:55.818Z,101274.22
2023-05-22T05:44:23.510Z,101282.44
2023-05-22T05:46:52.697Z,101285.16
2023-05-22T05:49:22.364Z,101281.16
2023-05-22T05:51:50.549Z,101287.34
2023-05-22T05:54:19.130Z,101287.34
2023-05-22T05:56:47.088Z,101284.25
2023-05-22T05:59:14.868Z,101279.13
2023-05-22T06:02:01.244Z,101275.66
2023-05-22T06:04:32.826Z,101275.50
2023-05-22T06:07:01.977Z,101273.94
2023-05-22T06:09:50.109Z,101272.34
2023-05-22T06:12:22.955Z,101272.44
2023-05-22T06:14:50.871Z,101269.34
2023-05-22T06:17:18.456Z,101266.09
2023-05-22T06:19:46.811Z,101261.31
2023-05-22T06:22:16.637Z,101268.63
2023-05-22T06:24:46.781Z,101267.31
2023-05-22T06:27:18.573Z,101254.78
2023-05-22T06:29:46.602Z,101265.41
2023-05-22T06:32:14.370Z,101251.97
2023-05-22T06:34:47.253Z,101266.34
2023-05-22T06:37:16.931Z,101265.69
2023-05-22T06:39:45.748Z,101259.06
2023-05-22T06:42:19.499Z,101275.16
2023-05-22T06:45:22.283Z,101268.25
2023-05-22T06:48:09.976Z,101269.34
2023-05-22T06:50:44.144Z,101269.28
2023-05-22T06:53:11.868Z,101279.25
2023-05-22T06:55:39.499Z,101268.16
2023-05-22T06:58:14.085Z,101275.06
2023-05-22T07:00:42.082Z,101276.09
2023-05-22T07:03:16.209Z,101275.78
2023-05-22T07:06:22.234Z,101275.44
2023-05-22T07:08:50.920Z,101273.94
2023-05-22T07:11:18.752Z,101276.16
2023-05-22T07:13:46.468Z,101267.94
2023-05-22T07:16:14.874Z,101268.09
2023-05-22T07:18:42.877Z,101266.88
2023-05-22T07:21:10.817Z,101268.00
2023-05-22T07:23:38.661Z,101267.22
2023-05-22T07:26:07.825Z,101274.69
2023-05-22T07:28:39.480Z,101265.84
2023-05-22T07:31:13.840Z,101266.09
2023-05-22T07:33:41.758Z,101267.50
2023-05-22T07:36:10.689Z,101259.69
2023-05-22T07:38:41.815Z,101259.44
2023-05-22T07:41:10.093Z,101260.94
2023-05-22T07:43:37.999Z,101255.84
2023-05-22T07:46:06.759Z,101249.84
2023-05-22T07:48:40.759Z,101256.88
2023-05-22T07:51:08.435Z,101265.44
2023-05-22T07:53:36.049Z,101259.75
2023-05-22T07:56:05.526Z,101258.53
2023-05-22T07:58:34.668Z,101257.31
2023-05-22T08:01:05.786Z,101254.00
2023-05-22T08:03:35.162Z,101250.09
2023-05-22T08:06:04.226Z,101247.75
2023-05-22T08:08:32.754Z,101257.06
2023-05-22T08:11:04.173Z,101257.25
2023-05-22T08:13:32.570Z,101242.63
2023-05-22T08:16:01.365Z,101241.22
2023-05-22T08:18:29.936Z,101254.34
2023-05-22T08:20:59.648Z,101250.28
2023-05-22T08:23:27.398Z,101243.88
2023-05-22T08:25:55.143Z,101240.75
2023-05-22T08:28:23.041Z,101245.22
2023-05-22T08:30:51.190Z,101241.72
2023-05-22T08:33:19.931Z,101242.91
2023-05-22T08:35:47.759Z,101241.97
2023-05-22T08:38:16.288Z,101239.03
2023-05-22T08:40:47.944Z,101242.81
2023-05-22T08:43:15.811Z,101232.84
2023-05-22T08:45:44.250Z,101231.78
2023-05-22T08:48:13.873Z,101238.88
2023-05-22T08:50:43.490Z,101223.41
2023-05-22T08:53:16.457Z,101225.72
2023-05-22T08:55:44.238Z,101213.56
2023-05-22T08:58:12.661Z,101217.13
2023-05-22T09:00:41.182Z,101209.72
2023-05-22T09:03:13.814Z,101203.25
2023-05-22T09:05:41.933Z,101200.75
2023-05-22T09:08:19.720Z,101200.97
2023-05-22T09:10:48.493Z,101209.41
2023-05-22T09:13:27.451Z,101204.34
2023-05-22T09:16:09.513Z,101198.03
2023-05-22T09:18:42.343Z,101205.19
2023-05-22T09:21:28.687Z,101200.16
2023-05-22T09:24:01.555Z,101202.06
2023-05-22T09:26:30.318Z,101203.34
2023-05-22T09:29:00.000Z,101202.88
2023-05-22T09:31:31.757Z,101202.75
2023-05-22T09:33:59.796Z,101201.06
2023-05-22T09:36:33.807Z,101195.97
2023-05-22T09:39:03.901Z,101181.44
2023-05-22T09:41:38.420Z,101190.38
2023-05-22T09:44:16.367Z,101191.16
2023-05-22T09:46:47.206Z,101187.38
2023-05-22T09:49:17.004Z,101192.88
2023-05-22T09:51:49.272Z,101189.31
2023-05-22T09:54:20.170Z,101179.59
2023-05-22T09:56:54.801Z,101188.06
2023-05-22T09:59:30.275Z,101184.31
2023-05-22T10:01:58.931Z,101187.19
2023-05-22T10:04:31.474Z,101190.44
2023-05-22T10:07:04.058Z,101182.34
2023-05-22T10:09:34.664Z,101182.22
2023-05-22T10:12:07.336Z,101179.41
2023-05-22T10:14:36.567Z,101180.84
2023-05-22T10:17:06.617Z,101170.00
2023-05-22T10:19:39.429Z,101173.25
2023-05-22T10:22:11.718Z,101173.06
2023-05-22T10:24:41.112Z,101165.13
2023-05-22T10:27:08.804Z,101163.38
2023-05-22T10:30:18.102Z,101159.72
2023-05-22T10:33:22.312Z,101156.94
2023-05-22T10:36:02.544Z,101147.00
2023-05-22T10:39:04.950Z,101145.53
2023-05-22T10:41:33.744Z,101152.44
2023-05-22T10:44:03.692Z,101146.19
2023-05-22T10:46:34.641Z,101145.00
2023-05-22T10:49:02.546Z,101137.22
2023-05-22T10:51:34.282Z,101141.72
2023-05-22T10:54:02.512Z,101135.22
2023-05-22T10:56:35.460Z,101128.00
2023-05-22T10:59:08.008Z,101130.38
2023-05-22T11:01:38.367Z,101131.13
2023-05-22T11:04:25.764Z,101124.63
2023-05-22T11:07:06.830Z,101129.56
2023-05-22T11:09:48.511Z,101127.59
2023-05-22T11:12:29.807Z,101128.06
2023-05-22T11:15:06.829Z,101125.16
2023-05-22T11:17:51.416Z,101117.56
2023-05-22T11:20:22.283Z,101119.38
2023-05-22T11:23:07.216Z,101125.44
2023-05-22T11:25:37.364Z,101119.03
2023-05-22T11:28:07.041Z,101110.06
2023-05-22T11:30:35.131Z,101105.59
2023-05-22T11:33:03.245Z,101107.50
2023-05-22T11:35:31.425Z,101101.88
2023-05-22T11:37:59.842Z,101113.38
2023-05-22T11:40:29.701Z,101108.75
2023-05-22T11:42:57.627Z,101107.47
2023-05-22T11:45:25.845Z,101094.88
2023-05-22T11:47:53.604Z,101100.22
2023-05-22T11:50:40.103Z,101098.19
2023-05-22T11:53:09.353Z,101094.63
2023-05-22T11:55:37.076Z,101089.03
2023-05-22T11:58:04.905Z,101095.31
2023-05-22T12:00:33.141Z,101092.75
2023-05-22T12:03:00.955Z,101087.31
2023-05-22T12:05:31.514Z,101078.91
2023-05-22T12:07:59.318Z,101083.34
2023-05-22T12:10:27.019Z,101085.22
2023-05-22T12:12:55.071Z,101080.06
2023-05-22T12:15:24.629Z,101069.91
2023-05-22T12:17:55.881Z,101074.59
2023-05-22T12:20:28.649Z,101059.59
2023-05-22T12:22:56.764Z,101064.06
2023-05-22T12:25:24.956Z,101065.84
2023-05-22T12:27:52.857Z,101067.69
2023-05-22T12:30:20.651Z,101073.38
2023-05-22T12:32:50.186Z,101061.34
2023-05-22T12:35:18.923Z,101063.50
2023-05-22T12:37:52.470Z,101058.53
2023-05-22T12:40:20.717Z,101061.44
2023-05-22T12:42:48.910Z,101062.44
2023-05-22T12:45:17.963Z,101059.41
2023-05-22T12:47:46.211Z,101052.47
2023-05-22T12:50:14.076Z,101052.97
2023-05-22T12:52:41.763Z,101060.78
2023-05-22T12:55:10.831Z,101051.00
2023-05-22T12:57:38.585Z,101052.03
2023-05-22T13:00:07.291Z,101053.72
2023-05-22T13:02:35.473Z,101043.09
2023-05-22T13:05:03.558Z,101046.59
2023-05-22T13:07:32.678Z,101041.47
2023-05-22T13:10:00.478Z,101041.56
2023-05-22T13:12:28.225Z,101034.34
2023-05-22T13:14:56.036Z,101039.06
2023-05-22T13:17:23.781Z,101033.63
2023-05-22T13:19:51.970Z,101031.63
2023-05-22T13:22:20.010Z,101029.81
2023-05-22T13:24:47.915Z,101028.91
2023-05-22T13:27:18.273Z,101025.13
2023-05-22T13:29:46.003Z,101021.59
2023-05-22T13:32:14.132Z,101025.59
2023-05-22T13:34:42.225Z,101022.78
2023-05-22T13:37:10.278Z,101012.19
2023-05-22T13:39:37.935Z,101019.06
2023-05-22T13:42:06.496Z,101007.22
2023-05-22T13:44:34.262Z,101008.44
2023-05-22T13:47:01.955Z,101013.25
2023-05-22T13:49:29.709Z,101003.97
2023-05-22T13:51:57.544Z,100999.97
2023-05-22T13:54:26.378Z,100999.47
2023-05-22T13:56:54.275Z,101001.94
2023-05-22T13:59:21.975Z,100988.34
2023-05-22T14:01:49.676Z,100993.09
2023-05-22T14:04:17.414Z,100992.13
2023-05-22T14:06:45.260Z,100993.31
2023-05-22T14:09:13.226Z,100982.44
2023-05-22T14:11:41.061Z,100993.09
2023-05-22T14:14:08.822Z,100978.69
2023-05-22T14:16:36.557Z,100990.94
2023-05-22T14:19:04.497Z,100978.41
2023-05-22T14:21:32.217Z,100983.19
2023-05-22T14:24:02.403Z,100971.34
2023-05-22T14:26:30.169Z,100970.88
2023-05-22T14:28:57.972Z,100981.47
2023-05-22T14:31:31.138Z,100970.03
2023-05-22T14:33:58.904Z,100965.84
2023-05-22T14:36:26.508Z,100967.03
2023-05-22T14:38:56.605Z,100943.59
2023-05-22T14:41:24.433Z,100957.22
2023-05-22T14:43:52.266Z,100942.81
2023-05-22T14:46:19.963Z,100951.41
2023-05-22T14:48:47.737Z,100936.03
2023-05-22T14:51:15.596Z,100939.97
2023-05-22T14:53:43.364Z,100933.81
2023-05-22T14:56:11.289Z,100936.53
2023-05-22T14:58:38.995Z,100936.34
2023-05-22T15:01:06.743Z,100928.63
2023-05-22T15:03:34.544Z,100930.06
2023-05-22T15:06:02.386Z,100931.81
2023-05-22T15:08:29.981Z,100916.81
2023-05-22T15:10:57.728Z,100925.13
2023-05-22T15:13:25.421Z,100927.56
2023-05-22T15:15:53.263Z,100923.47
2023-05-22T15:18:21.025Z,100917.41
2023-05-22T15:20:49.099Z,100917.78
2023-05-22T15:23:16.798Z,100910.41
2023-05-22T15:25:44.899Z,100903.44
2023-05-22T15:28:12.543Z,100904.94
2023-05-22T15:30:41.865Z,100905.94
2023-05-22T15:33:09.647Z,100895.38
2023-05-22T15:35:37.511Z,100904.75
2023-05-22T15:38:06.042Z,100900.97
2023-05-22T15:40:33.742Z,100895.97
2023-05-22T15:43:03.944Z,100894.06
2023-05-22T15:45:31.789Z,100886.88
2023-05-22T15:47:59.852Z,100885.00
2023-05-22T15:50:27.966Z,100885.50
2023-05-22T15:52:55.699Z,100870.16
2023-05-22T15:55:23.466Z,100874.03
2023-05-22T15:57:51.396Z,100882.88
2023-05-22T16:00:21.438Z,100886.75
2023-05-22T16:02:49.519Z,100864.38
2023-05-22T16:05:17.350Z,100861.91
2023-05-22T16:07:45.291Z,100866.31
2023-05-22T16:10:13.220Z,100862.50
2023-05-22T16:12:41.524Z,100871.56
2023-05-22T16:15:09.906Z,100868.38
2023-05-22T16:17:38.257Z,100875.25
2023-05-22T16:20:08.445Z,100879.03
2023-05-22T16:22:47.137Z,100865.59
2023-05-22T16:25:17.415Z,100874.09
2023-05-22T16:27:45.501Z,100865.53
2023-05-22T16:30:16.710Z,100870.69
2023-05-22T16:32:48.547Z,100872.16
2023-05-22T16:35:16.577Z,100860.81
2023-05-22T16:37:44.381Z,100864.44
2023-05-22T16:40:12.287Z,100862.38
2023-05-22T16:42:40.116Z,100856.00
2023-05-22T16:45:08.277Z,100870.28
2023-05-22T16:47:36.180Z,100868.72
2023-05-22T16:50:04.395Z,100870.03
2023-05-22T16:52:33.047Z,100864.94
2023-05-22T16:55:01.253Z,100875.16
2023-05-22T16:57:28.949Z,100866.53
2023-05-22T16:59:57.886Z,100874.66
2023-05-22T17:02:25.955Z,100871.81
2023-05-22T17:04:54.574Z,100864.78
2023-05-22T17:07:22.229Z,100866.34
2023-05-22T17:09:49.854Z,100877.03
2023-05-22T17:12:17.545Z,100865.69
2023-05-22T17:14:45.386Z,100871.84
2023-05-22T17:17:13.099Z,100872.00
2023-05-22T17:19:40.909Z,100882.88
2023-05-22T17:22:08.922Z,100864.41
2023-05-22T17:24:36.651Z,100874.88
2023-05-22T17:27:04.427Z,100870.41
2023-05-22T17:29:32.394Z,100868.22
2023-05-22T17:32:00.011Z,100868.63
2023-05-22T17:34:27.868Z,100870.34
2023-05-22T17:36:55.668Z,100870.34
2023-05-22T17:39:23.569Z,100878.16
2023-05-22T17:41:51.549Z,100869.91
2023-05-22T17:44:19.485Z,100868.25
2023-05-22T17:46:47.264Z,100873.47
2023-05-22T17:49:15.584Z,100862.91
2023-05-22T17:51:43.236Z,100863.63
2023-05-22T17:54:10.950Z,100855.78
2023-05-22T17:56:38.583Z,100855.25
2023-05-22T17:59:07.691Z,100855.78
2023-05-22T18:01:35.640Z,100856.47
2023-05-22T18:04:04.825Z,100850.47
2023-05-22T18:06:32.883Z,100863.72
2023-05-22T18:09:05.336Z,100862.75
2023-05-22T18:11:33.766Z,100862.13
2023-05-22T18:14:01.501Z,100866.63
2023-05-22T18:16:29.612Z,100862.28
2023-05-22T18:18:57.470Z,100853.00
2023-05-22T18:21:26.094Z,100855.31
2023-05-22T18:23:53.882Z,100857.69
2023-05-22T18:26:21.695Z,100860.63
2023-05-22T18:28:49.516Z,100867.72
2023-05-22T18:31:17.184Z,100855.41
2023-05-22T18:33:45.140Z,100861.47
2023-05-22T18:36:13.308Z,100860.53
2023-05-22T18:38:41.137Z,100856.56
2023-05-22T18:41:08.791Z,100853.50
2023-05-22T18:43:36.540Z,100857.13
2023-05-22T18:46:04.372Z,100851.19
2023-05-22T18:48:33.075Z,100860.09
2023-05-22T18:51:01.881Z,100854.22
2023-05-22T18:53:29.991Z,100860.09
2023-05-22T18:55:57.665Z,100868.34
2023-05-22T18:58:25.574Z,100868.69
2023-05-22T19:00:55.704Z,100875.16
2023-05-22T19:03:23.587Z,100869.66
2023-05-22T19:05:51.321Z,100881.44
2023-05-22T19:08:19.002Z,100891.47
2023-05-22T19:10:46.627Z,100883.09
2023-05-22T19:13:14.359Z,100886.44
2023-05-22T19:15:42.045Z,100892.72
2023-05-22T19:18:09.867Z,100890.44
2023-05-22T19:20:37.826Z,100886.94
2023-05-22T19:23:06.668Z,100879.78
2023-05-22T19:25:34.359Z,100885.25
2023-05-22T19:28:02.060Z,100881.28
2023-05-22T19:30:29.857Z,100885.41
2023-05-22T19:32:57.657Z,100886.47
2023-05-22T19:35:25.577Z,100886.47
2023-05-22T19:37:54.050Z,100895.88
2023-05-22T19:40:21.698Z,100896.50
2023-05-22T19:42:49.390Z,100899.00
2023-05-22T19:45:17.546Z,100890.19
2023-05-22T19:47:45.439Z,100897.38
2023-05-22T19:50:13.169Z,100902.22
2023-05-22T19:52:41.571Z,100911.28
2023-05-22T19:55:10.250Z,100913.66
2023-05-22T19:57:38.156Z,100909.41
2023-05-22T20:00:07.571Z,100906.69
2023-05-22T20:02:35.434Z,100909.44
2023-05-22T20:05:04.352Z,100908.69
2023-05-22T20:07:32.151Z,100900.16
2023-05-22T20:09:59.751Z,100911.31
2023-05-22T20:12:27.416Z,100916.44
2023-05-22T20:14:55.138Z,100911.03
2023-05-22T20:17:22.925Z,100910.56
2023-05-22T20:19:50.615Z,100904.72
2023-05-22T20:22:18.353Z,100903.56
2023-05-22T20:24:47.172Z,100899.91
2023-05-22T20:27:14.829Z,100895.53
2023-05-22T20:29:42.475Z,100897.72
2023-05-22T20:32:11.189Z,100891.84
2023-05-22T20:34:40.038Z,100894.63
2023-05-22T20:37:10.055Z,100893.50
2023-05-22T20:39:37.852Z,100896.00
2023-05-22T20:42:06.313Z,100891.31
2023-05-22T20:44:34.422Z,100896.28
2023-05-22T20:47:03.190Z,100893.91
2023-05-22T20:49:31.011Z,100892.94
2023-05-22T20:51:59.979Z,100895.38
2023-05-22T20:54:34.010Z,100897.88
2023-05-22T20:57:02.181Z,100905.41
2023-05-22T20:59:30.205Z,100906.97
2023-05-22T21:01:58.183Z,100912.06
2023-05-22T21:04:26.443Z,100910.13
2023-05-22T21:06:54.203Z,100909.34
2023-05-22T21:09:21.886Z,100904.34
2023-05-22T21:11:49.607Z,100908.06
2023-05-22T21:14:17.241Z,100912.19
2023-05-22T21:16:45.055Z,100924.31
2023-05-22T21:19:12.810Z,100917.22
2023-05-22T21:21:41.667Z,100915.22
2023-05-22T21:24:09.931Z,100927.81
2023-05-22T21:26:38.080Z,100919.53
2023-05-22T21:29:06.070Z,100917.22
2023-05-22T21:31:35.495Z,100916.66
2023-05-22T21:34:03.607Z,100923.78
2023-05-22T21:36:31.780Z,100911.16
2023-05-22T21:39:00.340Z,100914.06
2023-05-22T21:41:28.187Z,100917.28
2023-05-22T21:43:57.368Z,100916.44
2023-05-22T21:46:25.044Z,100919.06
2023-05-22T21:48:53.834Z,100907.88
2023-05-22T21:51:21.712Z,100900.09
2023-05-22T21:53:49.349Z,100913.75
2023-05-22T21:56:17.255Z,100909.13
2023-05-22T21:58:44.924Z,100920.59
2023-05-22T22:01:12.604Z,100907.06
2023-05-22T22:03:40.657Z,100908.94
2023-05-22T22:06:08.479Z,100913.94
2023-05-22T22:08:36.205Z,100904.88
2023-05-22T22:11:03.922Z,100901.66
2023-05-22T22:13:31.633Z,100898.13
2023-05-22T22:15:59.473Z,100904.88
2023-05-22T22:18:27.266Z,100903.91
2023-05-22T22:20:55.863Z,100902.03
2023-05-22T22:23:23.690Z,100896.44
2023-05-22T22:25:51.391Z,100901.59
2023-05-22T22:28:19.042Z,100903.47
2023-05-22T22:30:47.810Z,100892.41
2023-05-22T22:33:15.610Z,100894.25
2023-05-22T22:35:43.337Z,100884.78
2023-05-22T22:38:11.100Z,100880.59
2023-05-22T22:40:38.953Z,100880.75
2023-05-22T22:43:06.920Z,100884.22
2023-05-22T22:45:34.686Z,100871.94
2023-05-22T22:48:03.807Z,100869.88
2023-05-22T22:50:32.158Z,100878.72
2023-05-22T22:52:59.943Z,100884.63
2023-05-22T22:55:27.776Z,100889.16
2023-05-22T22:57:56.263Z,100888.22
2023-05-22T23:00:24.595Z,100889.34
2023-05-22T23:02:52.476Z,100896.59
2023-05-22T23:05:20.894Z,100894.72
2023-05-22T23:07:48.865Z,100895.06
2023-05-22T23:10:16.640Z,100911.47
2023-05-22T23:12:44.385Z,100908.31
2023-05-22T23:15:13.525Z,100907.06
2023-05-22T23:17:42.041Z,100915.00
2023-05-22T23:20:11.051Z,100911.16
2023-05-22T23:22:38.705Z,100901.00
2023-05-22T23:25:07.173Z,100900.13
2023-05-22T23:27:34.891Z,100893.66
2023-05-22T23:30:04.554Z,100897.81
2023-05-22T23:32:32.903Z,100891.84
2023-05-22T23:35:00.606Z,100890.06
2023-05-22T23:37:28.255Z,100879.81
2023-05-22T23:39:55.942Z,100878.03
2023-05-22T23:42:23.675Z,100873.81
2023-05-22T23:44:51.337Z,100860.78
2023-05-22T23:47:19.160Z,100856.41
2023-05-22T23:49:47.142Z,100862.63
2023-05-22T23:52:14.742Z,100855.47
2023-05-22T23:54:42.458Z,100861.41
2023-05-22T23:57:10.596Z,100849.91
2023-05-22T23:59:39.067Z,100844.97
